Point Sur, California
Current Conditions -  °F | °C
As of 9:10 AM on Saturday 25 Oct 2014 (Local Time) from KMRY Reporting Station
Haze Haze  
Wind Chill: 61°   Ceiling: 3200
Heat Index: 61°   Visibility: 5mi
Dew Point: 57°   Wind: 7mph
Humidity: 88%   Direction: 180°S
Pressure: 30.06"   Gusts: NA
Location:  36.5816°N, 121.843°W
Report Text: KMRY 251610Z 18006KT 5SM BR SCT026 OVC032 16/14 A3006 RMK AO2
Loading
Personal Weather Stations






























Interactive Weather Map
Tropical Storm Tracking
New forecast layout! Learn more

10-Day Weather Forecast

Advertisements
Track Severe Weather on mobile